Time;durP1;ratioP1;P1;durP2;ratioP2;P2;SDS_P1;SDS_P2;PMS_P1;PMS_P2;Temp;Humidity;BMP_temperature;BMP_pressure;BME280_temperature;BME280_humidity;BME280_pressure;Samples;Min_cycle;Max_cycle;Signal;HPM_P1;HPM_P2
2023/03/01 00:00:15;;;;;;;14.43;9.90;;;-0.20;99.90;;;;;;5049700;28;20400;-68
2023/03/01 00:02:41;;;;;;;12.50;9.55;;;-0.20;99.90;;;;;;5049389;28;20404;-67
2023/03/01 00:05:07;;;;;;;13.93;11.00;;;-0.20;99.90;;;;;;5049630;28;20044;-67
2023/03/01 00:07:33;;;;;;;13.65;10.85;;;-0.30;99.90;;;;;;5045733;28;20051;-67
2023/03/01 00:09:58;;;;;;;12.50;10.02;;;-0.30;99.90;;;;;;5049469;28;20040;-67
2023/03/01 00:12:24;;;;;;;16.05;11.35;;;-0.30;99.90;;;;;;5048042;28;20060;-67
2023/03/01 00:14:50;;;;;;;15.18;10.85;;;-0.40;99.90;;;;;;5050416;28;20083;-67
2023/03/01 00:17:15;;;;;;;12.43;10.13;;;-0.40;99.90;;;;;;5031393;28;20051;-67
2023/03/01 00:19:41;;;;;;;12.77;10.15;;;-0.40;99.90;;;;;;5049189;28;20395;-67
2023/03/01 00:22:07;;;;;;;13.77;10.63;;;-0.40;99.90;;;;;;5051785;28;20111;-68
2023/03/01 00:24:32;;;;;;;12.57;9.75;;;-0.40;99.90;;;;;;5031224;28;20080;-68
2023/03/01 00:26:58;;;;;;;15.20;10.50;;;-0.40;99.90;;;;;;5049506;28;20040;-67
2023/03/01 00:29:24;;;;;;;14.15;10.32;;;-0.40;99.90;;;;;;5049084;28;20399;-67
2023/03/01 00:31:51;;;;;;;11.48;10.27;;;-0.50;99.90;;;;;;5049259;28;20040;-67
2023/03/01 00:34:16;;;;;;;13.57;11.38;;;-0.50;99.90;;;;;;5046162;28;20037;-67
2023/03/01 00:36:42;;;;;;;16.35;11.88;;;-0.50;99.90;;;;;;5050009;28;20525;-67
2023/03/01 00:39:11;;;;;;;21.73;12.00;;;-0.60;99.90;;;;;;5032612;28;20037;-67
2023/03/01 00:41:37;;;;;;;16.02;11.40;;;-0.60;99.90;;;;;;5046722;28;20045;-67
2023/03/01 00:44:03;;;;;;;17.13;11.70;;;-0.60;99.90;;;;;;5049049;28;20115;-68
2023/03/01 00:46:30;;;;;;;18.33;11.98;;;-0.60;99.90;;;;;;5048956;28;20569;-67
2023/03/01 00:48:56;;;;;;;14.63;11.75;;;-0.60;99.90;;;;;;5048672;28;20119;-68
2023/03/01 00:51:26;;;;;;;14.45;11.50;;;-0.60;99.90;;;;;;5049253;28;20187;-67
2023/03/01 00:53:54;;;;;;;14.55;11.23;;;-0.60;99.90;;;;;;5048225;28;20537;-66
2023/03/01 00:56:20;;;;;;;14.18;11.82;;;-0.70;99.90;;;;;;5049220;28;20480;-66
2023/03/01 00:58:46;;;;;;;12.13;10.43;;;-0.70;99.90;;;;;;5032329;28;20039;-67
2023/03/01 01:01:19;;;;;;;13.48;11.50;;;-0.70;99.90;;;;;;5049025;28;20048;-68
2023/03/01 01:03:57;;;;;;;14.98;10.88;;;-0.70;99.90;;;;;;5047084;28;20042;-67
2023/03/01 01:06:25;;;;;;;12.70;10.50;;;-0.70;99.90;;;;;;5046691;28;20044;-67
2023/03/01 01:08:52;;;;;;;15.07;11.88;;;-0.70;99.90;;;;;;5047874;28;20041;-67
2023/03/01 01:11:18;;;;;;;14.82;12.15;;;-0.80;99.90;;;;;;5033018;28;20095;-67
2023/03/01 01:13:46;;;;;;;15.25;12.32;;;-0.80;99.90;;;;;;5048328;28;20044;-67
2023/03/01 01:16:12;;;;;;;15.27;11.57;;;-0.80;99.90;;;;;;5048784;28;20133;-67
2023/03/01 01:18:38;;;;;;;17.00;11.75;;;-0.80;99.90;;;;;;5048499;28;20044;-67
2023/03/01 01:21:07;;;;;;;15.77;12.20;;;-0.80;99.90;;;;;;5048720;28;20041;-68
2023/03/01 01:23:33;;;;;;;14.10;11.25;;;-0.80;99.90;;;;;;5046880;28;20075;-67
2023/03/01 01:26:11;;;;;;;17.00;12.23;;;-0.80;99.90;;;;;;5047248;28;20083;-67
2023/03/01 01:28:37;;;;;;;14.35;11.82;;;-0.90;99.90;;;;;;5047167;28;20037;-67
2023/03/01 01:31:04;;;;;;;17.08;13.45;;;-0.90;99.90;;;;;;5048466;28;20357;-67
2023/03/01 01:33:29;;;;;;;16.50;12.13;;;-0.90;99.90;;;;;;5055194;28;20095;-67
2023/03/01 01:35:55;;;;;;;17.77;13.85;;;-1.00;99.90;;;;;;5050239;28;20045;-66
2023/03/01 01:38:21;;;;;;;19.05;13.40;;;-1.00;99.90;;;;;;5053887;28;20040;-67
2023/03/01 01:40:48;;;;;;;19.35;13.80;;;-1.00;99.90;;;;;;5049724;28;20071;-67
2023/03/01 01:43:27;;;;;;;16.55;12.30;;;-1.00;99.90;;;;;;5035903;28;20079;-68
2023/03/01 01:45:56;;;;;;;15.88;12.90;;;-1.00;99.90;;;;;;5052040;28;20060;-68
2023/03/01 01:48:26;;;;;;;19.98;14.18;;;-1.00;99.90;;;;;;5052362;28;20041;-67
2023/03/01 01:50:58;;;;;;;18.88;13.68;;;-1.00;99.90;;;;;;5051786;28;20120;-67
2023/03/01 01:53:25;;;;;;;18.73;13.43;;;-1.00;99.90;;;;;;5052737;28;20447;-68
2023/03/01 01:55:58;;;;;;;20.30;15.23;;;-1.00;99.90;;;;;;5051941;28;20488;-67
2023/03/01 01:58:27;;;;;;;24.98;15.18;;;-0.90;99.90;;;;;;5049973;28;20472;-68
2023/03/01 02:00:53;;;;;;;33.35;17.73;;;-0.90;99.90;;;;;;5051780;28;20396;-66
2023/03/01 02:03:24;;;;;;;37.75;17.33;;;-0.90;99.90;;;;;;5054224;28;20037;-67
2023/03/01 02:06:18;;;;;;;41.22;17.83;;;-0.90;99.90;;;;;;5052398;28;20484;-67
2023/03/01 02:08:45;;;;;;;47.03;19.05;;;-0.90;99.90;;;;;;5051514;28;20506;-67
2023/03/01 02:11:14;;;;;;;43.00;18.70;;;-0.90;99.90;;;;;;5052095;28;20388;-67
2023/03/01 02:13:40;;;;;;;50.42;18.50;;;-0.90;99.90;;;;;;5049112;28;20496;-66
2023/03/01 02:16:10;;;;;;;47.50;18.92;;;-0.80;99.90;;;;;;5035279;28;20411;-67
2023/03/01 02:18:38;;;;;;;54.33;19.23;;;-0.80;99.90;;;;;;5052915;28;20040;-68
2023/03/01 02:21:34;;;;;;;61.45;20.00;;;-0.80;99.90;;;;;;5051745;28;20076;-66
2023/03/01 02:24:10;;;;;;;63.08;19.52;;;-0.80;99.90;;;;;;5012929;28;20065;-67
2023/03/01 02:26:44;;;;;;;49.90;19.95;;;-0.80;99.90;;;;;;4997760;28;20088;-66
2023/03/01 02:29:10;;;;;;;59.70;20.98;;;-0.80;99.90;;;;;;5014034;28;20056;-67
2023/03/01 02:31:41;;;;;;;65.95;19.95;;;-0.80;99.90;;;;;;5012796;28;20037;-67
2023/03/01 02:34:14;;;;;;;81.38;19.35;;;-0.90;99.90;;;;;;5014077;28;20471;-66
2023/03/01 02:36:47;;;;;;;90.40;19.20;;;-0.90;99.90;;;;;;5014514;28;20488;-67
2023/03/01 02:39:21;;;;;;;70.65;20.60;;;-1.00;99.90;;;;;;5014127;28;20506;-66
2023/03/01 02:41:51;;;;;;;50.45;19.50;;;-1.00;99.90;;;;;;5011254;28;20050;-67
2023/03/01 02:44:17;;;;;;;71.28;19.73;;;-1.00;99.90;;;;;;5013028;28;20127;-67
2023/03/01 02:46:48;;;;;;;65.13;19.45;;;-1.00;99.90;;;;;;5011856;28;20061;-67
2023/03/01 02:49:24;;;;;;;50.08;19.83;;;-1.00;99.90;;;;;;5013536;28;20120;-67
2023/03/01 02:52:22;;;;;;;68.00;20.85;;;-1.00;99.90;;;;;;4997227;28;20037;-67
2023/03/01 02:54:51;;;;;;;44.60;19.25;;;-1.10;99.90;;;;;;5012852;28;20045;-67
2023/03/01 02:57:18;;;;;;;45.55;19.60;;;-1.10;99.90;;;;;;5013399;28;20076;-68
2023/03/01 02:59:44;;;;;;;42.63;21.23;;;-1.10;99.90;;;;;;5014348;28;20488;-69
2023/03/01 03:02:35;;;;;;;40.70;21.38;;;-1.10;99.90;;;;;;5050065;28;20037;-69
2023/03/01 03:05:11;;;;;;;30.88;18.83;;;-1.10;99.90;;;;;;5051023;28;20044;-68
2023/03/01 03:07:41;;;;;;;25.75;18.17;;;-1.20;99.90;;;;;;5051084;28;20061;-69
2023/03/01 03:10:11;;;;;;;32.00;17.38;;;-1.20;99.90;;;;;;5051565;28;20134;-69
2023/03/01 03:12:37;;;;;;;25.70;17.33;;;-1.30;99.90;;;;;;5050410;28;20484;-67
2023/03/01 03:15:08;;;;;;;24.20;17.67;;;-1.30;99.90;;;;;;5050426;28;20124;-66
2023/03/01 03:17:36;;;;;;;23.85;17.63;;;-1.30;99.90;;;;;;5049926;28;20255;-66
2023/03/01 03:20:04;;;;;;;27.25;19.83;;;-1.40;99.90;;;;;;5051119;28;20511;-66
2023/03/01 03:22:30;;;;;;;22.38;17.38;;;-1.40;99.90;;;;;;5050019;28;20036;-65
2023/03/01 03:24:55;;;;;;;24.17;17.55;;;-1.50;99.90;;;;;;5050591;28;20053;-69
2023/03/01 03:27:21;;;;;;;24.50;17.77;;;-1.50;99.90;;;;;;5051630;28;20045;-66
2023/03/01 03:29:47;;;;;;;23.15;17.65;;;-1.60;99.90;;;;;;5051514;28;20039;-66
2023/03/01 03:32:12;;;;;;;22.13;17.10;;;-1.60;99.90;;;;;;5050611;28;20052;-69
2023/03/01 03:34:38;;;;;;;24.13;17.42;;;-1.60;99.90;;;;;;5048745;28;20388;-68
2023/03/01 03:38:01;;;;;;;24.25;17.95;;;-1.70;99.90;;;;;;5050319;28;20049;-69
2023/03/01 03:39:49;;;;;;;29.98;18.52;;;-1.70;99.90;;;;;;5048433;28;20395;-68
2023/03/01 03:42:15;;;;;;;26.48;19.05;;;-1.80;99.90;;;;;;5049136;28;20131;-68
2023/03/01 03:44:40;;;;;;;26.90;18.92;;;-1.80;99.90;;;;;;5050814;28;20037;-69
2023/03/01 03:47:06;;;;;;;33.67;18.92;;;-1.80;99.90;;;;;;5049165;28;20053;-69
2023/03/01 03:49:33;;;;;;;24.67;19.15;;;-1.90;99.90;;;;;;5050085;28;20041;-69
2023/03/01 03:51:58;;;;;;;25.98;18.55;;;-1.90;99.90;;;;;;5049622;28;20048;-69
2023/03/01 03:54:24;;;;;;;23.63;17.83;;;-1.90;99.90;;;;;;5049267;28;20032;-70
2023/03/01 03:56:50;;;;;;;23.00;17.50;;;-1.90;99.90;;;;;;5047277;28;20080;-69
2023/03/01 03:59:15;;;;;;;22.17;17.52;;;-2.00;99.90;;;;;;5050041;28;20114;-69
2023/03/01 04:01:41;;;;;;;22.98;17.38;;;-2.00;99.90;;;;;;5048977;28;20479;-69
2023/03/01 04:04:07;;;;;;;24.70;18.13;;;-1.90;99.90;;;;;;5050001;28;20120;-69
2023/03/01 04:06:33;;;;;;;23.58;17.80;;;-2.00;99.90;;;;;;5033137;28;20037;-69
2023/03/01 04:09:02;;;;;;;20.45;16.30;;;-1.90;99.90;;;;;;5050126;28;20139;-69
2023/03/01 04:11:28;;;;;;;23.25;17.88;;;-2.00;99.90;;;;;;5031758;28;20403;-69
2023/03/01 04:13:55;;;;;;;22.77;16.67;;;-2.00;99.90;;;;;;5048366;28;20049;-70
2023/03/01 04:16:22;;;;;;;20.45;16.67;;;-2.00;99.90;;;;;;5049606;28;20083;-69
2023/03/01 04:18:47;;;;;;;22.33;16.55;;;-2.00;99.90;;;;;;5049717;28;20037;-68
2023/03/01 04:21:13;;;;;;;21.58;16.65;;;-2.00;99.90;;;;;;5049981;28;20045;-66
2023/03/01 04:23:40;;;;;;;21.83;16.80;;;-2.00;99.90;;;;;;5048603;28;20482;-69
2023/03/01 04:26:07;;;;;;;21.38;16.55;;;-2.00;99.90;;;;;;5049402;28;20068;-69
2023/03/01 04:28:35;;;;;;;20.15;16.17;;;-2.00;99.90;;;;;;5045639;28;20040;-69
2023/03/01 04:31:13;;;;;;;21.23;16.38;;;-2.00;99.90;;;;;;5049593;28;20052;-66
2023/03/01 04:33:47;;;;;;;19.00;15.20;;;-2.00;99.90;;;;;;5047287;28;20048;-69
2023/03/01 04:36:14;;;;;;;18.55;14.95;;;-2.00;99.90;;;;;;5034793;28;20053;-70
2023/03/01 04:38:40;;;;;;;19.35;15.68;;;-2.00;99.90;;;;;;5049148;28;20503;-70
2023/03/01 04:41:08;;;;;;;18.33;14.20;;;-2.00;99.90;;;;;;5049185;28;20047;-70
2023/03/01 04:43:34;;;;;;;17.65;13.60;;;-2.10;99.90;;;;;;5048401;28;20498;-69
2023/03/01 04:46:07;;;;;;;17.60;13.50;;;-2.10;99.90;;;;;;5032553;28;20055;-70
2023/03/01 04:48:35;;;;;;;15.75;12.90;;;-2.20;99.90;;;;;;5047656;28;20426;-69
2023/03/01 04:51:01;;;;;;;17.55;14.23;;;-2.20;99.90;;;;;;5049087;28;20134;-69
2023/03/01 04:53:27;;;;;;;17.17;13.30;;;-2.20;99.90;;;;;;5049476;28;20041;-69
2023/03/01 04:55:55;;;;;;;18.38;14.20;;;-2.20;99.90;;;;;;5048774;28;20036;-69
2023/03/01 04:58:23;;;;;;;17.95;13.77;;;-2.30;99.90;;;;;;5048978;28;20426;-69
2023/03/01 05:00:48;;;;;;;18.35;14.07;;;-2.30;99.90;;;;;;5048807;28;20037;-68
2023/03/01 05:03:17;;;;;;;18.75;14.40;;;-2.30;99.90;;;;;;5032264;28;20559;-69
2023/03/01 05:05:44;;;;;;;20.42;15.30;;;-2.40;99.90;;;;;;5048213;28;20119;-69
2023/03/01 05:08:20;;;;;;;20.42;15.63;;;-2.40;99.90;;;;;;5048348;28;20037;-69
2023/03/01 05:10:51;;;;;;;18.33;14.55;;;-2.40;99.90;;;;;;5031750;28;20124;-69
2023/03/01 05:13:20;;;;;;;17.63;14.15;;;-2.40;99.90;;;;;;5046390;28;20045;-68
2023/03/01 05:16:00;;;;;;;17.58;13.52;;;-2.50;99.90;;;;;;5032030;28;20036;-69
2023/03/01 05:18:28;;;;;;;17.83;14.02;;;-2.50;99.90;;;;;;5047534;28;20456;-69
2023/03/01 05:21:04;;;;;;;17.42;14.55;;;-2.50;99.90;;;;;;5044544;28;20041;-69
2023/03/01 05:23:31;;;;;;;16.73;13.63;;;-2.50;99.90;;;;;;5045243;28;20555;-69
2023/03/01 05:26:03;;;;;;;17.90;13.70;;;-2.50;99.90;;;;;;5047182;28;20033;-70
2023/03/01 05:28:29;;;;;;;17.42;13.95;;;-2.50;99.90;;;;;;5048751;28;20124;-68
2023/03/01 05:30:55;;;;;;;17.55;14.20;;;-2.50;99.90;;;;;;5046821;28;20033;-70
2023/03/01 05:33:21;;;;;;;18.45;14.40;;;-2.50;99.90;;;;;;5082080;28;20041;-66
2023/03/01 05:35:48;;;;;;;16.65;13.90;;;-2.50;99.90;;;;;;5032326;28;20057;-65
2023/03/01 05:38:15;;;;;;;17.00;13.85;;;-2.50;99.90;;;;;;5031658;28;20040;-66
2023/03/01 05:40:43;;;;;;;18.92;14.05;;;-2.50;99.90;;;;;;5048777;28;20033;-69
2023/03/01 05:43:09;;;;;;;17.10;13.52;;;-2.50;99.90;;;;;;5048273;28;20072;-68
2023/03/01 05:45:37;;;;;;;16.10;13.07;;;-2.50;99.90;;;;;;5048197;28;20051;-69
2023/03/01 05:48:04;;;;;;;16.88;13.80;;;-2.50;99.90;;;;;;5044895;28;20399;-68
2023/03/01 05:50:33;;;;;;;15.73;13.07;;;-2.50;99.90;;;;;;5048554;28;20086;-68
2023/03/01 05:53:07;;;;;;;17.13;13.43;;;-2.50;99.90;;;;;;5047170;28;20516;-69
2023/03/01 05:55:34;;;;;;;17.65;13.95;;;-2.50;99.90;;;;;;5048408;28;20041;-69
2023/03/01 05:58:02;;;;;;;15.32;12.68;;;-2.50;99.90;;;;;;5031664;28;20110;-68
2023/03/01 06:00:29;;;;;;;15.85;13.05;;;-2.60;99.90;;;;;;5048296;28;20461;-68
2023/03/01 06:02:56;;;;;;;14.32;12.18;;;-2.60;99.90;;;;;;5048346;28;20049;-69
2023/03/01 06:05:22;;;;;;;15.00;12.75;;;-2.50;99.90;;;;;;5048067;28;20045;-69
2023/03/01 06:07:49;;;;;;;15.02;12.38;;;-2.50;99.90;;;;;;5048620;28;20033;-69
2023/03/01 06:10:16;;;;;;;16.17;13.25;;;-2.50;99.90;;;;;;5047768;28;20442;-69
2023/03/01 06:12:43;;;;;;;16.00;12.95;;;-2.50;99.90;;;;;;5048224;28;20032;-68
2023/03/01 06:15:10;;;;;;;15.15;12.60;;;-2.50;99.90;;;;;;5027883;28;20051;-69
2023/03/01 06:17:37;;;;;;;15.02;12.73;;;-2.50;99.90;;;;;;5050313;28;20132;-68
2023/03/01 06:20:09;;;;;;;14.98;13.00;;;-2.60;99.90;;;;;;5050320;28;20159;-69
2023/03/01 06:22:35;;;;;;;14.23;12.25;;;-2.60;99.90;;;;;;5034944;28;20033;-68
2023/03/01 06:25:01;;;;;;;15.07;12.73;;;-2.50;99.90;;;;;;5050828;28;20025;-70
2023/03/01 06:27:26;;;;;;;15.57;13.50;;;-2.50;99.90;;;;;;5054110;28;20041;-70
2023/03/01 06:29:52;;;;;;;16.63;12.73;;;-2.50;99.90;;;;;;5046996;28;20048;-70
2023/03/01 06:32:18;;;;;;;14.68;12.95;;;-2.50;99.90;;;;;;5051611;28;20036;-70
2023/03/01 06:34:44;;;;;;;15.05;13.20;;;-2.50;99.90;;;;;;5049842;28;20060;-70
2023/03/01 06:37:10;;;;;;;16.05;13.20;;;-2.50;99.90;;;;;;5052346;28;20098;-68
2023/03/01 06:39:35;;;;;;;14.93;12.48;;;-2.40;99.90;;;;;;5049923;28;20072;-70
2023/03/01 06:42:01;;;;;;;14.88;12.65;;;-2.50;99.90;;;;;;5048434;28;20033;-70
2023/03/01 06:44:27;;;;;;;15.60;12.82;;;-2.40;99.90;;;;;;5050201;28;20414;-70
2023/03/01 06:46:52;;;;;;;16.67;12.60;;;-2.40;99.90;;;;;;5051468;28;20106;-69
2023/03/01 06:49:19;;;;;;;15.55;12.73;;;-2.40;99.90;;;;;;5051711;28;20041;-70
2023/03/01 06:51:46;;;;;;;14.30;12.05;;;-2.40;99.90;;;;;;5052754;28;20492;-69
2023/03/01 06:54:12;;;;;;;14.82;12.45;;;-2.30;99.90;;;;;;5051407;28;20064;-69
2023/03/01 06:56:38;;;;;;;15.48;12.63;;;-2.30;99.90;;;;;;5034651;28;20069;-69
2023/03/01 06:59:04;;;;;;;15.40;12.70;;;-2.40;99.90;;;;;;5051285;28;20075;-69
2023/03/01 07:01:30;;;;;;;15.63;13.05;;;-2.40;99.90;;;;;;5051777;28;20504;-69
2023/03/01 07:03:56;;;;;;;18.63;13.65;;;-2.30;99.90;;;;;;5051161;28;20073;-69
2023/03/01 07:06:23;;;;;;;17.55;13.43;;;-2.30;99.90;;;;;;5051178;28;20071;-70
2023/03/01 07:08:48;;;;;;;17.42;13.80;;;-2.10;99.90;;;;;;5036049;28;20040;-69
2023/03/01 07:11:14;;;;;;;17.17;13.23;;;-2.10;99.90;;;;;;5051313;28;20506;-69
2023/03/01 07:13:40;;;;;;;16.77;13.32;;;-2.00;99.90;;;;;;5051415;28;20434;-69
2023/03/01 07:16:06;;;;;;;16.35;13.48;;;-1.90;99.90;;;;;;5048844;28;20041;-69
2023/03/01 07:18:32;;;;;;;15.85;13.32;;;-1.90;99.90;;;;;;5051626;28;20071;-68
2023/03/01 07:20:57;;;;;;;14.98;13.10;;;-1.80;99.90;;;;;;5048090;28;20432;-68
2023/03/01 07:23:23;;;;;;;15.95;13.05;;;-1.80;99.90;;;;;;5047555;28;20086;-69
2023/03/01 07:25:55;;;;;;;14.88;13.07;;;-1.70;99.90;;;;;;5053249;28;20036;-69
2023/03/01 07:28:24;;;;;;;;;;;-1.60;99.90;;;;;;5028965;28;20054;-70
2023/03/01 07:30:50;;;;;;;15.90;12.55;;;-1.60;99.90;;;;;;5079761;28;19925;-69
2023/03/01 07:33:17;;;;;;;13.65;11.90;;;-1.50;99.90;;;;;;5050720;28;20377;-69
2023/03/01 07:35:43;;;;;;;15.07;12.70;;;-1.30;99.90;;;;;;5050218;28;20041;-70
2023/03/01 07:38:09;;;;;;;14.07;12.50;;;-1.20;99.90;;;;;;5050069;28;20151;-69
2023/03/01 07:40:35;;;;;;;14.60;12.60;;;-1.20;99.90;;;;;;5055246;28;20118;-70
2023/03/01 07:43:01;;;;;;;16.45;13.30;;;-1.00;99.90;;;;;;5046877;28;20049;-70
2023/03/01 07:45:28;;;;;;;16.40;12.75;;;-0.90;99.90;;;;;;5050725;28;20040;-69
2023/03/01 07:47:55;;;;;;;16.00;13.13;;;-0.80;99.90;;;;;;5050337;28;20053;-70
2023/03/01 07:50:21;;;;;;;15.30;12.95;;;-0.70;99.90;;;;;;5050367;28;20053;-69
2023/03/01 07:52:49;;;;;;;17.45;13.23;;;-0.60;99.90;;;;;;5048237;28;20106;-69
2023/03/01 07:55:15;;;;;;;18.52;14.05;;;-0.40;99.90;;;;;;5049501;28;20128;-69
2023/03/01 07:57:42;;;;;;;21.05;15.00;;;-0.30;99.90;;;;;;5049072;28;20083;-70
2023/03/01 08:00:10;;;;;;;21.65;15.27;;;-0.20;99.90;;;;;;5050066;28;20099;-69
2023/03/01 08:02:35;;;;;;;19.65;15.10;;;-0.10;99.90;;;;;;5050127;28;20045;-69
2023/03/01 08:05:01;;;;;;;23.50;16.55;;;0.10;99.90;;;;;;5048763;28;20028;-69
2023/03/01 08:07:27;;;;;;;23.42;17.25;;;0.20;99.90;;;;;;5046933;28;20049;-69
2023/03/01 08:09:52;;;;;;;27.33;18.92;;;0.30;99.90;;;;;;5048692;28;20036;-71
2023/03/01 08:12:18;;;;;;;30.50;20.63;;;0.50;99.90;;;;;;5049898;28;20044;-67
2023/03/01 08:14:43;;;;;;;29.77;20.17;;;0.60;99.90;;;;;;5051523;28;20043;-68
2023/03/01 08:17:09;;;;;;;32.05;20.20;;;0.80;99.90;;;;;;5048046;28;20052;-67
2023/03/01 08:19:35;;;;;;;30.13;21.02;;;0.90;99.90;;;;;;5049541;28;20076;-68
2023/03/01 08:22:04;;;;;;;30.52;21.55;;;1.10;99.90;;;;;;5048190;28;20037;-67
2023/03/01 08:24:30;;;;;;;33.70;22.25;;;1.20;99.90;;;;;;5048912;28;20775;-67
2023/03/01 08:26:55;;;;;;;32.03;22.45;;;1.30;99.90;;;;;;5049707;28;20043;-70
2023/03/01 08:29:22;;;;;;;33.70;22.27;;;1.40;99.90;;;;;;5033245;28;20125;-69
2023/03/01 08:31:48;;;;;;;34.95;23.27;;;1.60;99.90;;;;;;5046357;28;20037;-69
2023/03/01 08:34:16;;;;;;;35.10;22.60;;;1.70;99.90;;;;;;5049132;28;20087;-67
2023/03/01 08:36:45;;;;;;;34.85;23.33;;;1.90;99.90;;;;;;5064871;28;20041;-70
2023/03/01 08:39:13;;;;;;;33.70;21.83;;;2.00;99.90;;;;;;5049653;28;20041;-69
2023/03/01 08:41:39;;;;;;;30.92;22.27;;;2.10;99.90;;;;;;5047967;28;20037;-69
2023/03/01 08:44:06;;;;;;;30.63;20.85;;;2.30;99.90;;;;;;5048716;28;20032;-70
2023/03/01 08:46:41;;;;;;;32.30;21.70;;;2.40;99.90;;;;;;5048604;28;20053;-69
2023/03/01 08:49:10;;;;;;;31.55;21.98;;;2.60;99.90;;;;;;5051804;28;20051;-70
2023/03/01 08:51:36;;;;;;;32.40;21.75;;;2.70;99.90;;;;;;5048625;28;20040;-69
2023/03/01 08:54:07;;;;;;;32.20;21.58;;;2.80;99.90;;;;;;5047970;28;20102;-71
2023/03/01 08:56:33;;;;;;;34.42;22.25;;;3.00;99.90;;;;;;5046505;28;20041;-71
2023/03/01 08:58:59;;;;;;;30.88;22.08;;;3.10;99.90;;;;;;5049261;28;20494;-70
2023/03/01 09:01:25;;;;;;;32.17;21.77;;;3.20;99.90;;;;;;5046335;28;20037;-68
2023/03/01 09:03:51;;;;;;;27.42;19.55;;;3.40;99.90;;;;;;5047916;28;20079;-70
2023/03/01 09:06:16;;;;;;;27.95;19.70;;;3.50;99.90;;;;;;5043837;28;20118;-71
2023/03/01 09:08:45;;;;;;;28.60;19.63;;;3.70;99.90;;;;;;5048567;28;20041;-69
2023/03/01 09:11:13;;;;;;;25.90;17.60;;;3.90;99.90;;;;;;5044411;28;20037;-68
2023/03/01 09:13:39;;;;;;;26.50;17.80;;;4.10;99.90;;;;;;5047230;28;20483;-69
2023/03/01 09:16:06;;;;;;;22.08;16.25;;;4.30;99.90;;;;;;5044634;28;20069;-67
2023/03/01 09:18:33;;;;;;;22.45;16.08;;;4.50;99.90;;;;;;5044789;28;20361;-67
2023/03/01 09:21:11;;;;;;;23.52;15.77;;;4.80;99.90;;;;;;5028854;28;20135;-67
2023/03/01 09:23:39;;;;;;;21.98;15.95;;;5.00;99.90;;;;;;5049742;28;20107;-67
2023/03/01 09:26:14;;;;;;;20.88;15.32;;;5.20;99.90;;;;;;5034241;28;20531;-68
2023/03/01 09:28:40;;;;;;;16.90;12.35;;;5.40;99.90;;;;;;5052329;28;20102;-69
2023/03/01 09:31:06;;;;;;;12.73;9.30;;;5.60;99.90;;;;;;5047786;28;20049;-68
2023/03/01 09:33:33;;;;;;;15.98;9.85;;;5.80;99.90;;;;;;5048664;28;20042;-67
2023/03/01 09:36:09;;;;;;;14.55;10.25;;;5.90;99.90;;;;;;5046266;28;20507;-69
2023/03/01 09:38:35;;;;;;;18.60;12.13;;;6.10;99.90;;;;;;5081098;28;20037;-67
2023/03/01 09:41:02;;;;;;;17.75;11.57;;;6.30;99.90;;;;;;5047088;28;20082;-67
2023/03/01 09:43:46;;;;;;;14.88;10.68;;;6.50;99.90;;;;;;5048624;28;20037;-67
2023/03/01 09:46:16;;;;;;;12.18;8.88;;;6.70;99.90;;;;;;5047120;28;20079;-67
2023/03/01 09:48:48;;;;;;;10.93;7.70;;;6.90;99.90;;;;;;5045879;28;20072;-67
2023/03/01 09:51:34;;;;;;;9.30;5.88;;;7.10;99.90;;;;;;5078834;28;20079;-68
2023/03/01 09:54:05;;;;;;;6.93;5.00;;;7.30;99.90;;;;;;5035447;28;20531;-67
2023/03/01 09:56:45;;;;;;;6.32;4.90;;;7.50;99.90;;;;;;5048239;28;20492;-68
2023/03/01 09:59:13;;;;;;;6.93;5.63;;;7.60;99.90;;;;;;5035735;28;20499;-67
2023/03/01 10:02:19;;;;;;;12.10;6.25;;;7.80;99.90;;;;;;5051178;28;20046;-68
2023/03/01 10:04:48;;;;;;;8.30;6.03;;;7.90;99.90;;;;;;5043429;28;20064;-67
2023/03/01 10:07:29;;;;;;;7.65;4.70;;;8.20;99.90;;;;;;5053622;28;20079;-68
2023/03/01 10:09:55;;;;;;;9.27;5.00;;;8.40;99.90;;;;;;5050409;28;20071;-67
2023/03/01 10:12:27;;;;;;;8.23;5.50;;;8.50;99.90;;;;;;5051766;28;20041;-67
2023/03/01 10:15:02;;;;;;;6.23;4.37;;;8.60;99.90;;;;;;5067784;28;20053;-68
2023/03/01 10:17:52;;;;;;;6.70;4.22;;;8.80;99.90;;;;;;5052256;28;20403;-67
2023/03/01 10:20:33;;;;;;;7.97;5.50;;;9.00;99.90;;;;;;5052736;28;20033;-67
2023/03/01 10:22:59;;;;;;;8.25;6.30;;;9.20;99.90;;;;;;5051800;28;20043;-67
2023/03/01 10:25:43;;;;;;;8.23;4.20;;;9.40;99.90;;;;;;5052326;28;20053;-67
2023/03/01 10:28:51;;;;;;;12.07;7.78;;;9.60;99.90;;;;;;5052195;28;20051;-67
2023/03/01 10:31:22;;;;;;;7.18;4.03;;;9.70;99.90;;;;;;5033417;28;20079;-68
2023/03/01 10:33:51;;;;;;;23.85;11.82;;;9.90;99.90;;;;;;5035190;28;20075;-68
2023/03/01 10:36:17;;;;;;;8.32;5.72;;;10.00;99.90;;;;;;5045682;28;20461;-67
2023/03/01 10:38:57;;;;;;;7.47;4.20;;;10.30;99.90;;;;;;5051809;28;20094;-68
2023/03/01 10:41:25;;;;;;;5.22;3.78;;;10.50;98.70;;;;;;5052221;28;20103;-67
2023/03/01 10:43:53;;;;;;;6.55;4.35;;;10.70;98.40;;;;;;5051353;28;20044;-67
2023/03/01 10:46:37;;;;;;;5.35;4.45;;;10.70;97.30;;;;;;5051783;28;20067;-69
2023/03/01 10:49:14;;;;;;;9.25;4.05;;;10.70;96.00;;;;;;5051452;28;20151;-68
2023/03/01 10:51:41;;;;;;;8.52;4.90;;;10.70;95.30;;;;;;5051962;28;20049;-68
2023/03/01 10:54:16;;;;;;;7.72;5.05;;;10.80;96.20;;;;;;5051258;28;20036;-68
2023/03/01 10:57:24;;;;;;;6.07;4.45;;;11.10;96.50;;;;;;5051581;28;20532;-67
2023/03/01 11:00:03;;;;;;;5.65;5.00;;;11.30;94.10;;;;;;5051318;28;20045;-68
2023/03/01 11:02:30;;;;;;;6.47;4.75;;;11.50;95.00;;;;;;5035549;28;20045;-68
2023/03/01 11:05:23;;;;;;;6.68;5.28;;;11.70;94.80;;;;;;5032449;28;20038;-69
2023/03/01 11:07:57;;;;;;;5.53;4.53;;;12.00;94.20;;;;;;5064962;28;20057;-69
2023/03/01 11:10:24;;;;;;;6.55;4.97;;;12.00;93.70;;;;;;5051560;28;20530;-68
2023/03/01 11:12:52;;;;;;;5.85;4.47;;;12.30;93.70;;;;;;5051224;28;20521;-67
2023/03/01 11:15:27;;;;;;;6.75;4.63;;;12.50;92.90;;;;;;5050756;28;20041;-68
2023/03/01 11:17:55;;;;;;;7.30;4.22;;;12.60;92.00;;;;;;5034279;28;20059;-68
2023/03/01 11:20:25;;;;;;;7.22;4.00;;;12.80;91.30;;;;;;5051372;28;20439;-67
2023/03/01 11:22:55;;;;;;;7.10;4.40;;;12.90;91.80;;;;;;5051109;28;20411;-67
2023/03/01 11:25:26;;;;;;;5.47;4.30;;;13.10;91.40;;;;;;5050676;28;20083;-67
2023/03/01 11:27:53;;;;;;;5.30;4.20;;;13.30;91.10;;;;;;5050967;28;20037;-68
2023/03/01 11:30:23;;;;;;;5.80;4.63;;;13.40;91.00;;;;;;5033718;28;20041;-67
2023/03/01 11:33:11;;;;;;;7.85;4.95;;;13.50;90.00;;;;;;5049568;28;20079;-69
2023/03/01 11:35:44;;;;;;;6.82;5.13;;;13.50;88.00;;;;;;5046470;28;20127;-67
2023/03/01 11:38:16;;;;;;;5.90;4.50;;;13.60;86.80;;;;;;5049899;28;20248;-68
2023/03/01 11:40:50;;;;;;;6.80;4.40;;;13.70;86.80;;;;;;5046693;28;20033;-67
2023/03/01 11:43:16;;;;;;;6.00;4.35;;;13.60;84.00;;;;;;5048466;28;20041;-67
2023/03/01 11:46:10;;;;;;;5.70;4.00;;;13.60;85.70;;;;;;5032678;28;20051;-68
2023/03/01 11:49:00;;;;;;;6.18;4.53;;;13.70;85.10;;;;;;5048371;28;20056;-69
2023/03/01 11:51:46;;;;;;;7.72;5.43;;;13.90;84.60;;;;;;5049844;28;20068;-69
2023/03/01 11:54:24;;;;;;;7.63;5.82;;;14.00;83.20;;;;;;5064976;28;20040;-67
2023/03/01 11:57:17;;;;;;;7.75;6.15;;;14.10;82.30;;;;;;5048534;28;20452;-69
2023/03/01 12:00:18;;;;;;;8.82;5.80;;;14.00;80.30;;;;;;5045472;28;20045;-68
2023/03/01 12:03:01;;;;;;;6.43;5.05;;;14.10;82.30;;;;;;5066657;28;20434;-69
2023/03/01 12:05:32;;;;;;;;;;;14.20;82.40;;;;;;5049252;28;20045;-69
2023/03/01 12:08:28;;;;;;;7.43;5.10;;;14.10;81.10;;;;;;5036343;28;19921;-67
2023/03/01 12:11:24;;;;;;;8.45;6.43;;;14.10;79.60;;;;;;5041135;28;20098;-69
2023/03/01 12:14:17;;;;;;;7.43;5.97;;;14.10;80.60;;;;;;5044916;28;20051;-68
2023/03/01 12:16:49;;;;;;;8.02;5.60;;;14.10;80.90;;;;;;5041256;28;20478;-68
2023/03/01 12:19:34;;;;;;;7.00;5.05;;;14.20;81.10;;;;;;5048589;28;20446;-67
2023/03/01 12:22:35;;;;;;;7.65;5.93;;;13.90;76.50;;;;;;5049959;28;20147;-68
2023/03/01 12:25:19;;;;;;;7.63;5.35;;;13.50;77.80;;;;;;5059688;28;20068;-68
2023/03/01 12:28:04;;;;;;;9.00;5.30;;;13.20;78.30;;;;;;5031266;28;20120;-68
2023/03/01 12:30:39;;;;;;;6.50;5.20;;;13.00;80.10;;;;;;5060603;28;20492;-69
2023/03/01 12:33:30;;;;;;;7.57;5.45;;;12.80;79.10;;;;;;5030383;28;20041;-67
2023/03/01 12:36:26;;;;;;;8.30;6.10;;;12.60;78.80;;;;;;5032927;28;20053;-68
2023/03/01 12:38:59;;;;;;;6.80;5.63;;;12.40;78.70;;;;;;5030824;28;20051;-67
2023/03/01 12:41:43;;;;;;;7.43;5.82;;;12.30;79.20;;;;;;5031272;28;20047;-70
2023/03/01 12:44:33;;;;;;;10.60;7.57;;;12.30;78.70;;;;;;5032028;28;20104;-68
2023/03/01 12:46:59;;;;;;;14.10;10.13;;;12.30;80.40;;;;;;5031647;28;20088;-69
2023/03/01 12:49:35;;;;;;;17.10;13.30;;;12.20;80.40;;;;;;5029905;28;20118;-68